Darstellungsparameter: Aktuell verwendete Einstellungen:
Skalierung der Graphiken ... ?
xyx+y,   Skalierungsfaktor:      Skalierung: Modus: x, Faktor: 1
Darstellungszeitraum ... ?
Vom - - bis: - -   Zeitraum: 21.10.2010 - 21.10.2010
Min/Max/Avg-Anzeige ... ?
Zeige MMA aktuell
Zeige MMA Monat
Zeige MMA alles
Zeige --A aktuell
Zeige --A Monat
Zeige --A alles
Keine MMA-Anzeige
MMA:
Minimum Maximum Average (ber die Originaldaten)
MMA-Basis: 21.10.2010 - 21.10.2010
Quicknavigation für Darstellung... ?
Tage:      1T, 2T, 3T, 5T -1T -2T -3T -5T +1T +2T +3T +5T
Wochen: 1W, 2W, 3W -1W -2W -3W +1W +2W +3W
Monate: 1M, 3M, 6M -1M -3M -6M +1M +3M +6M
Jahre:    1J, 3J, 5J, 10J -1J -3J -5J -10J +1J +3J +5J +10J
Nutze für die Darstellung ... ?
Originaldaten oder Mittelwerte auf ...
Stundenbasis Tagesbasis Wochenbasis
Monatsbasis Jahresbasis      Datenbasis: Original-Daten
Darstellen als:
Statistik (Auto) Statistik J:M      Darstellung:
Zur Graphik,    zurück zur Übersicht aller Sensoren.
 
Tabellarische Datenbersicht: ?
 
Sensor: Nr:Datum:Temp:Abs-Feuchte:Windchill:Wind:
Aussen-T/F 1 21-10-2010 00:09:04 4.5 C 5.13 g/m*3 4.5 C 0 km/h
2 21-10-2010 00:21:04 4.5 C 5.06 g/m*3 4.5 C 0 km/h
3 21-10-2010 00:33:04 4.6 C 5.1 g/m*3 4.6 C 0 km/h
4 21-10-2010 00:45:04 4.7 C 5.13 g/m*3 4.7 C 0 km/h
5 21-10-2010 00:57:04 4.7 C 5.13 g/m*3 4.7 C 0 km/h
6 21-10-2010 01:09:04 4.6 C 5.1 g/m*3 4.6 C 0 km/h
7 21-10-2010 01:21:04 4.5 C 5.06 g/m*3 4.5 C 0 km/h
8 21-10-2010 01:33:04 4.3 C 4.99 g/m*3 4.3 C 0 km/h
9 21-10-2010 01:45:04 4.5 C 5.06 g/m*3 4.5 C 0 km/h
10 21-10-2010 01:57:04 4.3 C 4.99 g/m*3 4.3 C 0 km/h
11 21-10-2010 02:09:04 4.1 C 4.93 g/m*3 4.1 C 0 km/h
12 21-10-2010 02:21:04 3.8 C 4.96 g/m*3 3.8 C 0 km/h
13 21-10-2010 02:33:05 3.7 C 4.99 g/m*3 3.7 C 0 km/h
14 21-10-2010 02:45:05 3.6 C 5.01 g/m*3 3.6 C 0 km/h
15 21-10-2010 02:57:05 3.5 C 4.98 g/m*3 3.5 C 0 km/h
16 21-10-2010 03:09:05 3.5 C 4.98 g/m*3 3.5 C 0 km/h
17 21-10-2010 03:21:05 3.4 C 5.01 g/m*3 3.4 C 0 km/h
18 21-10-2010 03:33:05 3.4 C 5.01 g/m*3 3.4 C 0 km/h
19 21-10-2010 03:45:05 3.3 C 4.97 g/m*3 3.3 C 0 km/h
20 21-10-2010 03:57:05 3 C 4.93 g/m*3 3 C 0 km/h
21 21-10-2010 04:09:05 3 C 4.93 g/m*3 3 C 0 km/h
22 21-10-2010 04:21:05 3 C 4.99 g/m*3 3 C 0 km/h
23 21-10-2010 04:33:05 2.5 C 4.83 g/m*3 2.5 C 0 km/h
24 21-10-2010 04:45:05 2.3 C 4.82 g/m*3 2.3 C 0 km/h
25 21-10-2010 04:57:05 2.4 C 4.91 g/m*3 2.4 C 0 km/h
Sensor: Nr:Datum:Temp:Abs-Feuchte:Windchill:Wind:
Aussen-T/F 26 21-10-2010 05:09:05 2.4 C 4.97 g/m*3 2.4 C 0 km/h
27 21-10-2010 05:21:05 2.1 C 4.87 g/m*3 2.1 C 0 km/h
28 21-10-2010 05:33:05 1.8 C 4.77 g/m*3 1.8 C 0 km/h
29 21-10-2010 05:45:05 1.6 C 4.7 g/m*3 1.6 C 0 km/h
30 21-10-2010 05:57:05 1.7 C 4.79 g/m*3 1.7 C 0 km/h
31 21-10-2010 06:09:05 1.5 C 4.73 g/m*3 1.5 C 0 km/h
32 21-10-2010 06:21:05 1.6 C 4.81 g/m*3 1.6 C 0 km/h
33 21-10-2010 06:33:06 1.8 C 4.93 g/m*3 1.8 C 0 km/h
34 21-10-2010 06:45:06 1.8 C 4.99 g/m*3 1.8 C 0 km/h
35 21-10-2010 06:57:06 1.8 C 5.04 g/m*3 1.8 C 0 km/h
36 21-10-2010 07:09:06 1.7 C 5.01 g/m*3 1.7 C 0 km/h
37 21-10-2010 07:21:06 1.8 C 5.04 g/m*3 1.8 C 0 km/h
38 21-10-2010 07:33:06 1.6 C 4.97 g/m*3 1.6 C 0 km/h
39 21-10-2010 07:45:06 1.6 C 4.97 g/m*3 1.6 C 0 km/h
40 21-10-2010 07:57:06 1.6 C 4.97 g/m*3 1.6 C 0 km/h
41 21-10-2010 08:09:06 1.7 C 5.01 g/m*3 1.7 C 0 km/h
42 21-10-2010 08:21:03 1.8 C 5.04 g/m*3 1.8 C 0 km/h
43 21-10-2010 08:33:04 1.9 C 5.08 g/m*3 1.9 C 0 km/h
44 21-10-2010 08:45:02 2.5 C 5.29 g/m*3 2.5 C 0 km/h
45 21-10-2010 08:57:03 2.6 C 5.27 g/m*3 2.6 C 0 km/h
46 21-10-2010 09:09:02 2.6 C 5.27 g/m*3 2.6 C 0 km/h
47 21-10-2010 09:21:02 2.8 C 5.28 g/m*3 2.8 C 0 km/h
48 21-10-2010 09:33:02 3 C 5.23 g/m*3 3 C 0 km/h
49 21-10-2010 09:45:01 3.2 C 5.24 g/m*3 3.2 C 0 km/h
50 21-10-2010 09:57:01 3.4 C 5.19 g/m*3 3.4 C 0 km/h
Sensor: Nr:Datum:Temp:Abs-Feuchte:Windchill:Wind:
Aussen-T/F 51 21-10-2010 10:09:02 3.7 C 5.17 g/m*3 3.7 C 0 km/h
52 21-10-2010 10:21:01 3.9 C 5.05 g/m*3 3.9 C 0 km/h
53 21-10-2010 10:33:02 4.1 C 4.99 g/m*3 4.1 C 0 km/h
54 21-10-2010 10:45:02 4.3 C 4.99 g/m*3 4.3 C 0 km/h
55 21-10-2010 10:57:02 4.8 C 5.1 g/m*3 4.8 C 0 km/h
56 21-10-2010 11:09:02 5.1 C 4.99 g/m*3 5.1 C 0 km/h
57 21-10-2010 11:21:01 5.4 C 5.09 g/m*3 5.4 C 0 km/h
58 21-10-2010 11:33:02 5.7 C 4.98 g/m*3 5.7 C 0 km/h
59 21-10-2010 11:45:02 5.9 C 4.98 g/m*3 5.9 C 0 km/h
60 21-10-2010 11:57:02 6.1 C 4.89 g/m*3 6.1 C 0 km/h
61 21-10-2010 12:09:02 6.4 C 4.84 g/m*3 6.4 C 0 km/h
62 21-10-2010 12:21:01 6.7 C 4.71 g/m*3 6.7 C 0 km/h
63 21-10-2010 12:33:02 7 C 4.57 g/m*3 7 C 0 km/h
64 21-10-2010 12:45:02 7.2 C 4.47 g/m*3 7.2 C 0 km/h
65 21-10-2010 12:57:02 7.6 C 4.51 g/m*3 7.6 C 0 km/h
66 21-10-2010 13:09:02 7.9 C 4.44 g/m*3 7.9 C 0 km/h
67 21-10-2010 13:21:02 8.3 C 4.3 g/m*3 8.3 C 0 km/h
68 21-10-2010 13:33:02 8.7 C 4.06 g/m*3 8.7 C 0 km/h
69 21-10-2010 13:45:02 9.1 C 3.99 g/m*3 9.1 C 0 km/h
70 21-10-2010 13:57:02 9.5 C 3.82 g/m*3 9.5 C 0 km/h
71 21-10-2010 14:09:02 9.9 C 3.92 g/m*3 9.9 C 0 km/h
72 21-10-2010 14:21:02 10.1 C 3.78 g/m*3 10.1 C 0 km/h
73 21-10-2010 14:33:01 10.5 C 3.88 g/m*3 10.5 C 0 km/h
74 21-10-2010 14:45:02 10.6 C 3.9 g/m*3 10.6 C 0 km/h
75 21-10-2010 14:57:02 10.8 C 3.85 g/m*3 10.8 C 0 km/h
Sensor: Nr:Datum:Temp:Abs-Feuchte:Windchill:Wind:
Aussen-T/F 76 21-10-2010 15:09:01 10.7 C 3.63 g/m*3 10.7 C 0 km/h
77 21-10-2010 15:21:02 10.6 C 3.61 g/m*3 10.6 C 0 km/h
78 21-10-2010 15:33:01 10.6 C 3.51 g/m*3 10.6 C 0 km/h
79 21-10-2010 15:45:02 10.7 C 3.73 g/m*3 10.7 C 0 km/h
80 21-10-2010 15:57:03 10.7 C 3.63 g/m*3 10.7 C 0 km/h
81 21-10-2010 16:09:02 10.9 C 3.78 g/m*3 10.9 C 0 km/h
82 21-10-2010 16:21:02 10.6 C 3.61 g/m*3 10.6 C 0 km/h
83 21-10-2010 16:33:02 10.2 C 3.52 g/m*3 10.2 C 0 km/h
84 21-10-2010 16:45:02 9.9 C 3.64 g/m*3 9.9 C 0 km/h
85 21-10-2010 16:57:02 10.4 C 3.66 g/m*3 10.4 C 0 km/h
86 21-10-2010 17:09:02 11.2 C 3.65 g/m*3 11.2 C 0 km/h
87 21-10-2010 17:21:01 11.4 C 3.59 g/m*3 11.4 C 0 km/h
88 21-10-2010 17:33:02 11.3 C 3.47 g/m*3 11.3 C 0 km/h
89 21-10-2010 17:45:02 10.9 C 3.58 g/m*3 10.9 C 0 km/h
90 21-10-2010 17:57:02 10 C 3.48 g/m*3 10 C 0 km/h
91 21-10-2010 18:09:02 8.9 C 3.94 g/m*3 8.9 C 0 km/h
92 21-10-2010 18:21:01 7.8 C 3.92 g/m*3 7.8 C 0 km/h
93 21-10-2010 18:33:02 7.2 C 3.92 g/m*3 7.2 C 0 km/h
94 21-10-2010 18:45:02 6.7 C 4.03 g/m*3 6.7 C 0 km/h
95 21-10-2010 18:57:02 6.3 C 4.07 g/m*3 6.3 C 0 km/h
96 21-10-2010 19:09:02 6.1 C 4.02 g/m*3 6.1 C 0 km/h
97 21-10-2010 19:21:01 5.8 C 4.01 g/m*3 5.8 C 0 km/h
98 21-10-2010 19:33:02 5.6 C 4.03 g/m*3 5.6 C 0 km/h
99 21-10-2010 19:45:02 5.5 C 4.07 g/m*3 5.5 C 0 km/h
100 21-10-2010 19:57:02 5.2 C 4.13 g/m*3 5.2 C 0 km/h
Sensor: Nr:Datum:Temp:Abs-Feuchte:Windchill:Wind:
Aussen-T/F 101 21-10-2010 20:09:02 5 C 4.08 g/m*3 5 C 0 km/h
102 21-10-2010 20:21:02 4.8 C 4.09 g/m*3 4.8 C 0 km/h
103 21-10-2010 20:33:02 4.7 C 4.06 g/m*3 4.7 C 0 km/h
104 21-10-2010 20:45:02 4.7 C 3.86 g/m*3 4.7 C 0 km/h
105 21-10-2010 20:57:02 5.1 C 3.69 g/m*3 5.1 C 0 km/h
106 21-10-2010 21:09:02 5 C 3.6 g/m*3 5 C 0 km/h
107 21-10-2010 21:21:02 4.9 C 3.71 g/m*3 4.9 C 0 km/h
108 21-10-2010 21:33:02 4.6 C 3.77 g/m*3 4.6 C 0 km/h
109 21-10-2010 21:45:02 4.5 C 3.75 g/m*3 4.5 C 0 km/h
110 21-10-2010 21:57:02 4.1 C 3.84 g/m*3 4.1 C 0 km/h
111 21-10-2010 22:09:02 4 C 3.81 g/m*3 4 C 0 km/h
112 21-10-2010 22:22:04 4.1 C 3.78 g/m*3 4.1 C 0 km/h
113 21-10-2010 22:34:04 3.8 C 3.83 g/m*3 3.8 C 0 km/h
114 21-10-2010 22:46:04 3.7 C 3.86 g/m*3 3.7 C 0 km/h
115 21-10-2010 22:58:04 3.6 C 3.9 g/m*3 3.6 C 0 km/h
116 21-10-2010 23:10:04 3.5 C 3.87 g/m*3 3.5 C 0 km/h
117 21-10-2010 23:22:04 3.5 C 3.87 g/m*3 3.5 C 0 km/h
118 21-10-2010 23:34:04 3.3 C 3.88 g/m*3 3.3 C 0 km/h
119 21-10-2010 23:46:04 2.9 C 3.9 g/m*3 2.9 C 0 km/h
120 21-10-2010 23:58:04 2.5 C 3.91 g/m*3 2.5 C 0 km/h

Legende:
   Min
   Max


Maximal/Minimal-Werte vom 21.10.2010 - 21.10.2010

Sensor Min Max Avg
Temp
(Aussen-T/F)
1.5 °C
21-10-2010  06:09:05
11.4 °C
21-10-2010  17:21:01
5.27 °C
Abs-Feuchte
(Aussen-T/F)
3.47 g/m*3
21-10-2010  17:33:02
5.29 g/m*3
21-10-2010  08:45:02
4.42 g/m*3
Windchill
(Aussen-T/F)
1.5 C
21-10-2010  06:09:05
11.4 C
21-10-2010  17:21:01
5.23 C

Die Daten stammen von einer Davis Vantage Pro 2 Wetter-Station und werden unter Linux mit der Software wview2wettercgi und aufbereitet. Alle Angaben erfolgen ohne Gewähr für ihre Vollständigkeit oder Richtigkeit.
Kontakt: Rainer Krienke krienke@uni-koblenz.de . Meine Webseiten an der Uni Koblenz oder privat.
Version: $Revision: 0.78 $